Time;durP1;ratioP1;P1;durP2;ratioP2;P2;SDS_P1;SDS_P2;PMS_P1;PMS_P2;Temp;Humidity;BMP_temperature;BMP_pressure;BME280_temperature;BME280_humidity;BME280_pressure;Samples;Min_cycle;Max_cycle;Signal;HPM_P1;HPM_P2
2022/07/22 00:01:52;;;;;;;52.47;48.85;;;;;;;22.36;100.00;100928.06;5009091;28;20526;-80
2022/07/22 00:04:19;;;;;;;36.08;33.47;;;;;;;22.14;100.00;100936.53;5010378;28;20490;-81
2022/07/22 00:06:46;;;;;;;58.38;54.60;;;;;;;22.00;100.00;100933.63;5000320;28;20053;-82
2022/07/22 00:09:14;;;;;;;54.28;50.50;;;;;;;21.95;100.00;100939.06;5004574;28;20452;-82
2022/07/22 00:11:41;;;;;;;39.33;36.33;;;;;;;22.07;100.00;100936.03;5001004;28;20057;-82
2022/07/22 00:14:09;;;;;;;48.25;45.30;;;;;;;22.31;100.00;100933.50;5007498;28;20064;-82
2022/07/22 00:16:36;;;;;;;47.08;43.90;;;;;;;22.16;100.00;100931.66;5014210;28;20054;-81
2022/07/22 00:19:03;;;;;;;43.67;40.88;;;;;;;22.16;100.00;100935.19;4999260;28;20134;-83
2022/07/22 00:21:31;;;;;;;48.97;45.22;;;;;;;22.07;100.00;100934.13;5009168;28;20521;-81
2022/07/22 00:23:58;;;;;;;41.20;38.33;;;;;;;22.09;100.00;100940.09;4999550;28;20054;-81
2022/07/22 00:26:25;;;;;;;45.92;42.92;;;;;;;22.25;100.00;100940.84;5001056;28;20056;-81
2022/07/22 00:28:53;;;;;;;44.78;42.05;;;;;;;22.13;100.00;100943.84;4999156;28;20052;-82
2022/07/22 00:31:22;;;;;;;44.85;41.70;;;;;;;22.26;100.00;100942.44;5002955;28;20056;-82
2022/07/22 00:33:51;;;;;;;51.88;48.78;;;;;;;22.29;100.00;100938.38;5001689;28;20049;-81
2022/07/22 00:36:19;;;;;;;42.80;39.95;;;;;;;22.26;100.00;100949.75;5007455;28;20463;-82
2022/07/22 00:38:46;;;;;;;44.92;41.95;;;;;;;22.17;100.00;100938.72;5002091;28;20493;-82
2022/07/22 00:41:13;;;;;;;49.80;46.80;;;;;;;22.15;100.00;100944.38;5013277;28;20046;-81
2022/07/22 00:43:54;;;;;;;50.72;47.40;;;;;;;22.14;100.00;100941.94;5009889;28;20038;-82
2022/07/22 00:46:22;;;;;;;47.53;44.35;;;;;;;22.24;100.00;100949.22;5010918;28;20050;-82
2022/07/22 00:48:50;;;;;;;42.97;40.08;;;;;;;22.21;100.00;100947.91;5006413;28;20045;-82
2022/07/22 00:51:20;;;;;;;41.15;38.55;;;;;;;22.23;100.00;100943.00;5008236;28;20767;-80
2022/07/22 00:53:50;;;;;;;40.28;37.67;;;;;;;22.01;100.00;100946.06;4995047;28;20391;-80
2022/07/22 00:56:18;;;;;;;41.10;38.15;;;;;;;21.39;100.00;100950.84;5001765;28;20045;-79
2022/07/22 00:58:48;;;;;;;40.88;37.90;;;;;;;21.40;100.00;100954.34;4999681;28;20382;-82
2022/07/22 01:01:15;;;;;;;42.03;38.92;;;;;;;20.55;100.00;100952.13;4998619;28;20056;-81
2022/07/22 01:03:44;;;;;;;42.13;38.72;;;;;;;21.07;100.00;100958.38;5000808;28;20046;-82
2022/07/22 01:06:11;;;;;;;53.45;50.42;;;;;;;21.60;100.00;100954.28;4998387;28;20142;-81
2022/07/22 01:08:40;;;;;;;42.88;39.90;;;;;;;21.71;100.00;100949.69;5004836;28;20046;-80
2022/07/22 01:11:09;;;;;;;39.50;36.53;;;;;;;21.72;100.00;100946.72;5011839;28;20478;-80
2022/07/22 01:13:38;;;;;;;46.72;43.72;;;;;;;21.68;100.00;100944.81;5003013;28;20046;-83
2022/07/22 01:16:07;;;;;;;47.55;44.47;;;;;;;21.25;100.00;100960.53;5004364;28;20054;-80
2022/07/22 01:18:37;;;;;;;44.45;41.22;;;;;;;20.68;100.00;100956.19;5003315;28;20048;-80
2022/07/22 01:21:09;;;;;;;39.80;36.83;;;;;;;20.46;100.00;100961.78;5001040;28;20069;-81
2022/07/22 01:23:37;;;;;;;45.90;42.50;;;;;;;20.39;100.00;100964.69;4996894;28;20426;-82
2022/07/22 01:26:05;;;;;;;42.50;39.40;;;;;;;19.93;100.00;100961.03;5010457;28;20410;-82
2022/07/22 01:28:32;;;;;;;44.92;41.47;;;;;;;20.03;100.00;100961.06;5008705;28;20058;-81
2022/07/22 01:30:59;;;;;;;46.03;42.47;;;;;;;19.37;100.00;100969.56;4996290;28;20054;-81
2022/07/22 01:33:27;;;;;;;46.47;43.13;;;;;;;19.84;100.00;100966.09;4995516;28;20060;-82
2022/07/22 01:35:54;;;;;;;37.28;33.95;;;;;;;19.93;100.00;100963.72;5007275;28;20054;-81
2022/07/22 01:38:23;;;;;;;42.30;39.00;;;;;;;20.43;100.00;100965.81;5007153;28;20071;-81
2022/07/22 01:40:52;;;;;;;43.60;39.72;;;;;;;20.22;100.00;100958.72;4998578;28;20047;-81
2022/07/22 01:43:20;;;;;;;40.85;38.03;;;;;;;20.43;100.00;100960.41;5002485;28;20085;-81
2022/07/22 01:45:52;;;;;;;40.17;37.30;;;;;;;20.42;100.00;100964.16;5014628;28;20049;-83
2022/07/22 01:48:21;;;;;;;43.20;40.10;;;;;;;20.27;100.00;100958.72;5012809;28;20053;-81
2022/07/22 01:50:49;;;;;;;40.67;37.45;;;;;;;20.15;100.00;100961.66;5013556;28;20485;-81
2022/07/22 01:53:16;;;;;;;40.15;37.00;;;;;;;19.98;100.00;100959.16;5009032;28;20056;-82
2022/07/22 01:55:46;;;;;;;38.53;35.47;;;;;;;20.14;100.00;100960.03;5013254;28;20042;-81
2022/07/22 01:58:15;;;;;;;37.17;34.17;;;;;;;20.05;100.00;100958.94;4998919;28;20052;-83
2022/07/22 02:00:42;;;;;;;37.33;34.13;;;;;;;20.09;100.00;100962.72;5128660;22;20032;-83
2022/07/22 02:03:10;;;;;;;43.60;40.20;;;;;;;20.13;100.00;100953.84;5036972;28;20045;-82
2022/07/22 02:05:37;;;;;;;43.90;40.47;;;;;;;19.95;100.00;100956.19;5035842;28;20064;-83
2022/07/22 02:08:06;;;;;;;44.28;41.17;;;;;;;20.00;100.00;100954.34;5036123;28;20042;-82
2022/07/22 02:10:33;;;;;;;42.63;39.22;;;;;;;19.44;100.00;100965.56;5036741;28;20059;-83
2022/07/22 02:13:02;;;;;;;44.60;40.72;;;;;;;19.57;100.00;100964.28;5036190;28;20041;-83
2022/07/22 02:15:29;;;;;;;48.30;44.65;;;;;;;19.58;100.00;100962.44;5036397;28;20050;-83
2022/07/22 02:17:56;;;;;;;47.47;43.78;;;;;;;19.95;100.00;100962.38;5036687;28;20167;-83
2022/07/22 02:20:24;;;;;;;55.33;51.42;;;;;;;20.10;100.00;100964.34;5036283;28;20119;-83
2022/07/22 02:22:51;;;;;;;58.72;54.78;;;;;;;20.23;100.00;100965.75;5036009;28;20128;-83
2022/07/22 02:25:19;;;;;;;55.10;51.10;;;;;;;19.80;100.00;100970.41;5036368;28;20050;-83
2022/07/22 02:27:45;;;;;;;47.28;43.85;;;;;;;19.87;100.00;100971.78;5037412;28;20045;-83
2022/07/22 02:30:14;;;;;;;41.70;38.08;;;;;;;20.11;100.00;100963.25;5035957;28;20151;-83
2022/07/22 02:32:41;;;;;;;50.70;47.00;;;;;;;19.77;100.00;100966.34;5035083;28;20052;-83
2022/07/22 02:35:08;;;;;;;51.05;47.28;;;;;;;19.78;100.00;100973.34;5032484;28;20507;-82
2022/07/22 02:37:37;;;;;;;61.40;56.92;;;;;;;18.71;100.00;100964.38;5035553;28;20049;-82
2022/07/22 02:40:05;;;;;;;46.42;42.40;;;;;;;18.98;100.00;100973.28;5036734;28;20085;-83
2022/07/22 02:42:32;;;;;;;51.38;47.17;;;;;;;19.28;100.00;100969.22;5035402;28;20051;-83
2022/07/22 02:44:59;;;;;;;46.47;42.55;;;;;;;19.18;100.00;100971.81;5029082;28;20057;-82
2022/07/22 02:47:27;;;;;;;40.08;36.88;;;;;;;19.48;100.00;100973.94;5029775;28;20493;-84
2022/07/22 02:49:54;;;;;;;43.30;39.70;;;;;;;19.87;100.00;100979.84;5033443;28;20057;-82
2022/07/22 02:52:21;;;;;;;49.28;45.70;;;;;;;19.90;100.00;100970.44;5032155;28;20132;-82
2022/07/22 02:54:48;;;;;;;45.05;41.30;;;;;;;19.34;100.00;100972.78;5037704;28;20046;-82
2022/07/22 02:57:15;;;;;;;36.65;33.40;;;;;;;19.27;100.00;100969.47;5038772;28;20053;-82
2022/07/22 02:59:42;;;;;;;35.03;32.00;;;;;;;18.73;100.00;100962.28;5032715;28;20045;-82
2022/07/22 03:02:09;;;;;;;39.90;36.65;;;;;;;19.23;100.00;100969.97;5041890;28;20053;-83
2022/07/22 03:04:37;;;;;;;35.65;32.83;;;;;;;19.01;100.00;100963.88;5040348;28;20056;-82
2022/07/22 03:07:04;;;;;;;38.08;35.08;;;;;;;18.57;100.00;100957.78;5038173;28;20049;-82
2022/07/22 03:09:32;;;;;;;36.80;33.90;;;;;;;18.99;100.00;100966.00;5042916;28;20475;-83
2022/07/22 03:11:59;;;;;;;34.15;31.25;;;;;;;18.64;100.00;100969.97;5038554;28;20050;-82
2022/07/22 03:14:26;;;;;;;44.78;41.55;;;;;;;18.92;100.00;100971.59;5038855;28;20053;-84
2022/07/22 03:16:53;;;;;;;41.72;38.80;;;;;;;19.18;100.00;100974.50;5037852;28;20042;-82
2022/07/22 03:19:21;;;;;;;44.53;41.17;;;;;;;19.53;100.00;100986.63;5042359;28;20045;-83
2022/07/22 03:21:49;;;;;;;43.85;40.88;;;;;;;19.55;100.00;100984.50;5036848;28;20042;-82
2022/07/22 03:24:16;;;;;;;49.92;46.38;;;;;;;19.73;100.00;100983.28;5037872;28;20055;-82
2022/07/22 03:26:43;;;;;;;56.95;53.17;;;;;;;19.43;100.00;100982.00;5037137;28;20417;-83
2022/07/22 03:29:12;;;;;;;53.42;49.78;;;;;;;19.68;100.00;100990.25;5037571;28;20054;-82
2022/07/22 03:31:40;;;;;;;44.70;41.50;;;;;;;19.68;100.00;100998.34;5036840;28;20051;-83
2022/07/22 03:34:07;;;;;;;39.40;36.63;;;;;;;19.73;100.00;100991.34;5035081;28;20131;-82
2022/07/22 03:36:34;;;;;;;42.60;39.40;;;;;;;19.74;100.00;100996.50;5036299;28;20041;-82
2022/07/22 03:39:02;;;;;;;42.80;39.90;;;;;;;20.05;100.00;100999.38;5029376;28;20058;-82
2022/07/22 03:41:29;;;;;;;36.28;33.78;;;;;;;19.47;100.00;100993.88;5036498;28;20045;-83
2022/07/22 03:43:57;;;;;;;40.40;36.80;;;;;;;19.93;100.00;100998.75;5030768;28;20397;-82
2022/07/22 03:46:24;;;;;;;40.47;37.45;;;;;;;19.97;100.00;101000.69;5028352;28;20056;-82
2022/07/22 03:48:51;;;;;;;44.90;41.63;;;;;;;19.98;100.00;100998.81;5033857;28;20057;-82
2022/07/22 03:51:25;;;;;;;39.40;36.78;;;;;;;20.44;100.00;100994.41;5040230;28;20463;-82
2022/07/22 03:53:52;;;;;;;43.90;40.80;;;;;;;20.66;100.00;100991.50;5039556;28;20077;-81
2022/07/22 03:56:20;;;;;;;41.92;39.08;;;;;;;20.78;100.00;100985.88;5038935;28;20052;-82
2022/07/22 03:58:47;;;;;;;38.28;35.38;;;;;;;20.85;100.00;100999.09;5037784;28;20508;-82
2022/07/22 04:01:14;;;;;;;36.50;34.05;;;;;;;20.98;100.00;100995.91;5035506;28;20049;-82
2022/07/22 04:03:41;;;;;;;39.95;36.40;;;;;;;21.05;100.00;100999.94;5033500;28;20400;-83
2022/07/22 04:06:08;;;;;;;43.38;40.15;;;;;;;21.12;100.00;101004.28;5033963;28;20465;-82
2022/07/22 04:08:36;;;;;;;38.45;35.95;;;;;;;20.97;100.00;101000.50;5029067;28;20046;-82
2022/07/22 04:11:04;;;;;;;36.40;34.00;;;;;;;21.09;100.00;101007.50;5034330;28;20051;-83
2022/07/22 04:13:32;;;;;;;35.20;32.63;;;;;;;21.30;100.00;101003.72;5027950;28;20045;-82
2022/07/22 04:15:59;;;;;;;36.33;33.72;;;;;;;21.34;100.00;101009.44;5034348;28;20121;-82
2022/07/22 04:18:26;;;;;;;40.35;37.45;;;;;;;21.43;100.00;101011.34;5028628;28;20493;-82
2022/07/22 04:20:53;;;;;;;49.03;45.85;;;;;;;21.41;100.00;101018.09;5034412;28;20057;-83
2022/07/22 04:23:22;;;;;;;47.92;44.88;;;;;;;21.49;100.00;101004.84;5034431;28;20045;-81
2022/07/22 04:25:49;;;;;;;39.78;37.08;;;;;;;21.35;100.00;101011.84;5019828;28;20050;-83
2022/07/22 04:28:16;;;;;;;39.78;36.80;;;;;;;21.29;100.00;101015.63;5033264;28;20045;-84
2022/07/22 04:30:47;;;;;;;41.17;38.10;;;;;;;21.58;100.00;101013.22;5034266;28;20541;-82
2022/07/22 04:33:14;;;;;;;41.80;38.90;;;;;;;21.54;100.00;101017.53;5033466;28;20049;-83
2022/07/22 04:35:41;;;;;;;43.03;39.85;;;;;;;21.59;100.00;101020.22;5034982;28;20059;-81
2022/07/22 04:38:08;;;;;;;40.33;37.65;;;;;;;21.94;100.00;101019.38;5034236;28;20441;-81
2022/07/22 04:40:35;;;;;;;41.63;38.78;;;;;;;22.34;100.00;101017.63;5036841;28;20050;-81
2022/07/22 04:43:02;;;;;;;38.35;35.40;;;;;;;22.27;100.00;101024.41;5035131;28;20049;-83
2022/07/22 04:45:29;;;;;;;39.92;37.30;;;;;;;22.38;100.00;101026.81;5033601;28;20052;-82
2022/07/22 04:47:58;;;;;;;41.22;38.50;;;;;;;22.58;100.00;101035.94;5036982;28;20056;-84
2022/07/22 04:50:25;;;;;;;37.45;34.95;;;;;;;22.70;100.00;101024.78;5030828;28;21067;-82
2022/07/22 04:52:52;;;;;;;36.53;33.80;;;;;;;22.71;100.00;101038.03;5035054;28;20060;-79
2022/07/22 04:55:19;;;;;;;35.25;32.78;;;;;;;22.81;100.00;101031.72;5034821;28;20059;-79
2022/07/22 04:57:47;;;;;;;41.08;38.47;;;;;;;22.86;100.00;101035.22;5034168;28;20516;-82
2022/07/22 05:00:16;;;;;;;43.22;40.20;;;;;;;23.02;100.00;101030.53;5035094;28;20057;-81
2022/07/22 05:02:43;;;;;;;34.22;32.05;;;;;;;23.37;100.00;101035.97;5033637;28;20049;-84
2022/07/22 05:05:13;;;;;;;33.83;30.98;;;;;;;23.75;100.00;101042.44;5033339;28;20437;-83
2022/07/22 05:07:40;;;;;;;34.20;31.67;;;;;;;23.91;100.00;101041.19;5033635;28;20049;-82
2022/07/22 05:10:09;;;;;;;30.95;28.77;;;;;;;24.17;100.00;101036.28;5033968;28;20049;-85
2022/07/22 05:12:36;;;;;;;35.03;32.47;;;;;;;24.28;100.00;101036.97;5037118;28;20054;-82
2022/07/22 05:15:04;;;;;;;32.00;29.55;;;;;;;24.40;100.00;101034.66;5032566;28;20055;-84
2022/07/22 05:17:32;;;;;;;31.38;28.85;;;;;;;24.84;100.00;101028.13;5028632;28;20049;-84
2022/07/22 05:19:59;;;;;;;29.25;26.88;;;;;;;24.94;100.00;101039.94;5032185;28;20054;-81
2022/07/22 05:22:27;;;;;;;30.98;28.58;;;;;;;24.47;100.00;101041.66;5032409;28;20063;-82
2022/07/22 05:24:54;;;;;;;32.05;29.65;;;;;;;24.48;100.00;101046.81;5030499;28;20049;-84
2022/07/22 05:27:21;;;;;;;33.80;30.92;;;;;;;24.78;100.00;101047.47;5032886;28;20401;-81
2022/07/22 05:29:48;;;;;;;32.28;29.77;;;;;;;24.86;100.00;101047.63;5029260;28;20045;-84
2022/07/22 05:32:15;;;;;;;29.42;27.50;;;;;;;25.04;100.00;101050.63;5032458;28;20052;-83
2022/07/22 05:34:42;;;;;;;30.52;28.50;;;;;;;25.62;87.12;101044.00;5032809;28;20413;-82
2022/07/22 05:37:08;;;;;;;29.65;27.50;;;;;;;26.18;93.68;101054.69;5032298;28;20067;-82
2022/07/22 05:39:37;;;;;;;32.05;29.20;;;;;;;26.13;70.00;101049.34;5033495;28;20050;-82
2022/07/22 05:42:04;;;;;;;31.40;29.10;;;;;;;26.29;71.11;101044.38;5031332;28;20053;-84
2022/07/22 05:44:31;;;;;;;36.30;33.75;;;;;;;26.42;74.08;101051.75;5033475;28;20049;-82
2022/07/22 05:46:58;;;;;;;33.67;30.90;;;;;;;26.39;74.26;101046.91;5031414;28;20049;-84
2022/07/22 05:49:26;;;;;;;32.58;30.25;;;;;;;26.14;61.24;101047.41;5032092;28;20049;-84
2022/07/22 05:51:53;;;;;;;32.90;30.77;;;;;;;26.15;60.70;101047.13;5029875;28;20509;-84
2022/07/22 05:54:21;;;;;;;34.25;31.92;;;;;;;26.43;57.84;101049.81;5033508;28;20045;-84
2022/07/22 05:56:52;;;;;;;35.33;33.22;;;;;;;26.57;56.75;101056.09;5024921;28;20145;-82
2022/07/22 05:59:19;;;;;;;35.13;32.65;;;;;;;26.41;52.41;101052.84;5033680;28;20096;-82
2022/07/22 06:01:46;;;;;;;34.47;32.33;;;;;;;26.77;57.53;101048.56;5035110;28;20045;-81
2022/07/22 06:04:14;;;;;;;31.95;29.42;;;;;;;26.85;52.87;101054.09;5031476;28;20053;-83
2022/07/22 06:06:41;;;;;;;31.38;29.35;;;;;;;26.72;50.43;101055.75;5034801;28;20063;-82
2022/07/22 06:09:09;;;;;;;32.17;29.88;;;;;;;26.67;48.43;101060.50;5034182;28;20505;-81
2022/07/22 06:11:36;;;;;;;36.38;33.97;;;;;;;26.75;49.09;101058.97;5033113;28;20053;-82
2022/07/22 06:14:04;;;;;;;30.70;28.17;;;;;;;26.75;47.44;101057.06;5034971;28;20045;-81
2022/07/22 06:16:32;;;;;;;32.20;30.40;;;;;;;26.98;48.82;101054.38;5032353;28;20041;-83
2022/07/22 06:18:59;;;;;;;38.15;35.50;;;;;;;27.29;45.13;101047.09;5033897;28;20532;-81
2022/07/22 06:21:26;;;;;;;38.03;35.70;;;;;;;27.27;44.87;101048.53;5034682;28;20417;-83
2022/07/22 06:23:52;;;;;;;39.05;36.40;;;;;;;27.50;44.76;101052.84;5032680;28;20045;-81
2022/07/22 06:26:21;;;;;;;36.60;34.60;;;;;;;27.58;42.62;101056.75;5035266;28;20049;-82
2022/07/22 06:28:48;;;;;;;34.75;32.58;;;;;;;27.74;41.57;101060.66;5034622;28;20068;-83
2022/07/22 06:31:17;;;;;;;34.35;32.35;;;;;;;27.85;42.09;101053.06;5035206;28;20495;-82
2022/07/22 06:33:44;;;;;;;32.92;30.92;;;;;;;27.94;42.43;101056.63;5036602;28;20051;-83
2022/07/22 06:36:11;;;;;;;33.40;31.00;;;;;;;28.13;46.55;101050.91;5036987;28;20063;-82
2022/07/22 06:38:38;;;;;;;34.53;32.50;;;;;;;28.35;42.66;101052.72;5036310;28;20050;-82
2022/07/22 06:41:05;;;;;;;34.67;32.67;;;;;;;28.17;44.04;101051.09;5037686;28;20061;-82
2022/07/22 06:43:32;;;;;;;32.15;29.70;;;;;;;28.33;42.93;101046.81;5035693;28;20057;-82
2022/07/22 06:46:00;;;;;;;33.13;30.92;;;;;;;28.33;40.19;101056.94;5035769;28;20049;-82
2022/07/22 06:48:29;;;;;;;32.17;30.02;;;;;;;28.60;40.20;101050.44;5035501;28;20049;-82
2022/07/22 06:50:56;;;;;;;32.75;30.73;;;;;;;28.44;40.85;101055.53;5035435;28;20053;-82
2022/07/22 06:53:23;;;;;;;29.52;27.63;;;;;;;28.50;38.01;101059.72;5036378;28;20045;-83
2022/07/22 06:55:50;;;;;;;29.65;27.75;;;;;;;28.56;39.55;101058.44;5037141;28;20056;-81
2022/07/22 06:58:17;;;;;;;25.77;24.10;;;;;;;28.51;38.57;101064.06;5035116;28;20038;-83
2022/07/22 07:00:44;;;;;;;26.85;24.92;;;;;;;28.81;39.22;101065.06;5037135;28;20045;-83
2022/07/22 07:03:11;;;;;;;26.95;25.05;;;;;;;28.83;39.77;101060.06;5032343;28;20053;-83
2022/07/22 07:05:40;;;;;;;26.45;24.40;;;;;;;29.20;42.18;101066.06;5036991;28;20060;-82
2022/07/22 07:08:07;;;;;;;35.60;32.80;;;;;;;29.42;41.42;101070.53;5037472;28;20068;-82
2022/07/22 07:10:34;;;;;;;29.50;27.60;;;;;;;29.35;42.98;101068.28;5037559;28;20046;-86
2022/07/22 07:13:03;;;;;;;26.95;25.13;;;;;;;29.48;36.15;101063.75;5036154;28;20049;-82
2022/07/22 07:15:31;;;;;;;29.58;27.58;;;;;;;29.56;38.47;101062.94;5032933;28;20053;-83
2022/07/22 07:17:59;;;;;;;27.95;25.85;;;;;;;29.64;37.39;101066.81;5031928;28;20109;-84
2022/07/22 07:20:31;;;;;;;28.67;26.77;;;;;;;29.54;42.09;101069.88;5038167;28;20504;-83
2022/07/22 07:23:07;;;;;;;31.70;29.80;;;;;;;29.80;40.06;101088.97;5036139;28;20389;-82
2022/07/22 07:25:35;;;;;;;33.75;31.40;;;;;;;29.85;36.17;101077.84;5037362;28;20041;-81
2022/07/22 07:28:03;;;;;;;32.10;30.00;;;;;;;29.64;38.52;101073.06;5036070;28;20060;-82
2022/07/22 07:30:30;;;;;;;30.85;28.85;;;;;;;29.78;35.72;101080.28;5038026;28;20049;-84
2022/07/22 07:32:57;;;;;;;34.25;31.75;;;;;;;29.66;35.76;101073.56;5033992;28;20081;-83
2022/07/22 07:35:24;;;;;;;33.65;31.27;;;;;;;29.99;35.45;101074.91;5034296;28;20053;-81
2022/07/22 07:37:51;;;;;;;32.25;29.83;;;;;;;30.07;35.62;101083.06;5035360;28;20046;-80
2022/07/22 07:40:27;;;;;;;33.45;31.17;;;;;;;30.25;34.41;101086.56;5032787;28;20525;-82
2022/07/22 07:42:54;;;;;;;33.00;30.95;;;;;;;30.10;35.98;101079.66;5033026;28;20060;-84
2022/07/22 07:45:21;;;;;;;31.65;29.50;;;;;;;30.70;35.01;101085.97;5032981;28;20053;-82
2022/07/22 07:47:49;;;;;;;30.35;28.55;;;;;;;30.13;39.56;101089.16;5036587;28;20052;-79
2022/07/22 07:50:16;;;;;;;28.70;27.10;;;;;;;30.45;34.79;101079.53;5038966;28;20080;-84
2022/07/22 07:52:47;;;;;;;34.13;32.33;;;;;;;30.73;32.88;101088.03;5029521;28;20045;-82
2022/07/22 07:55:15;;;;;;;32.50;30.15;;;;;;;30.62;32.50;101080.53;5026923;28;20091;-82
2022/07/22 07:57:46;;;;;;;30.00;28.17;;;;;;;30.49;34.23;101085.13;5033141;28;20042;-80
2022/07/22 08:00:14;;;;;;;34.40;32.25;;;;;;;30.75;33.75;101085.78;5034029;28;20053;-83
2022/07/22 08:02:42;;;;;;;38.40;35.80;;;;;;;30.82;32.94;101089.94;5035504;28;20049;-81
2022/07/22 08:05:11;;;;;;;34.65;32.55;;;;;;;30.99;33.30;101081.59;5026708;28;20366;-81
2022/07/22 08:07:40;;;;;;;35.75;33.58;;;;;;;30.88;32.73;101094.88;5036230;28;20052;-82
2022/07/22 08:10:08;;;;;;;34.70;32.40;;;;;;;30.73;31.70;101092.72;5031463;28;20132;-82
2022/07/22 08:12:35;;;;;;;38.05;35.75;;;;;;;30.98;32.02;101088.19;5034589;28;20132;-81
2022/07/22 08:15:04;;;;;;;37.47;35.38;;;;;;;31.37;32.30;101086.09;5035634;28;20064;-84
2022/07/22 08:17:31;;;;;;;33.80;31.60;;;;;;;31.11;33.33;101089.06;5034321;28;20049;-83
2022/07/22 08:19:59;;;;;;;37.42;34.95;;;;;;;31.14;31.11;101086.47;5034454;28;20049;-83
2022/07/22 08:22:27;;;;;;;33.53;31.52;;;;;;;31.31;32.13;101096.47;5033771;28;20473;-81
2022/07/22 08:24:55;;;;;;;30.83;28.63;;;;;;;31.34;29.46;101084.84;5031657;28;20386;-80
2022/07/22 08:27:22;;;;;;;28.05;26.23;;;;;;;31.36;30.37;101090.00;5033337;28;20073;-81
2022/07/22 08:29:50;;;;;;;31.85;29.80;;;;;;;31.48;28.61;101088.09;5037166;28;20092;-82
2022/07/22 08:32:18;;;;;;;36.58;34.13;;;;;;;31.39;29.96;101092.88;5034345;28;20478;-81
2022/07/22 08:34:45;;;;;;;36.05;33.83;;;;;;;31.62;30.88;101090.53;5035415;28;20053;-81
2022/07/22 08:37:12;;;;;;;33.17;31.15;;;;;;;31.43;29.33;101085.56;5035286;28;20045;-83
2022/07/22 08:39:40;;;;;;;34.42;32.33;;;;;;;31.51;35.42;101077.59;5034810;28;20436;-82
2022/07/22 08:42:07;;;;;;;34.50;32.50;;;;;;;31.94;30.50;101083.41;5028286;28;20046;-83
2022/07/22 08:44:34;;;;;;;35.78;33.70;;;;;;;32.03;37.27;101086.03;5028559;28;20041;-82
2022/07/22 08:47:02;;;;;;;36.83;34.33;;;;;;;32.26;29.47;101091.88;5034317;28;20060;-81
2022/07/22 08:49:30;;;;;;;35.10;32.67;;;;;;;32.27;29.52;101084.44;5034701;28;20045;-80
2022/07/22 08:51:57;;;;;;;37.40;35.25;;;;;;;31.85;27.51;101081.88;5035236;28;20060;-80
2022/07/22 08:54:25;;;;;;;32.13;29.65;;;;;;;31.64;36.77;101085.50;5031564;28;20041;-82
2022/07/22 08:56:53;;;;;;;32.55;30.25;;;;;;;32.03;31.04;101091.53;5028917;28;20520;-81
2022/07/22 08:59:20;;;;;;;31.08;28.92;;;;;;;32.46;35.66;101089.38;5030007;28;20118;-82
2022/07/22 09:02:05;;;;;;;30.42;27.85;;;;;;;32.49;28.70;101092.22;5031318;28;20053;-82
2022/07/22 09:04:33;;;;;;;30.33;27.92;;;;;;;32.73;29.41;101088.63;5033637;28;20042;-81
2022/07/22 09:07:01;;;;;;;28.75;26.45;;;;;;;31.93;35.89;101084.53;5034444;28;20099;-83
2022/07/22 09:09:35;;;;;;;30.25;27.95;;;;;;;32.45;27.70;101085.03;5035470;28;20057;-82
2022/07/22 09:12:06;;;;;;;28.13;25.92;;;;;;;32.22;30.16;101081.91;5034997;28;20517;-81
2022/07/22 09:14:50;;;;;;;27.58;25.38;;;;;;;32.92;28.17;101074.28;5033044;28;20045;-81
2022/07/22 09:17:29;;;;;;;30.60;28.20;;;;;;;33.06;26.92;101071.13;5031965;28;20081;-82
2022/07/22 09:20:00;;;;;;;29.38;27.23;;;;;;;33.50;28.87;101077.50;5034125;28;20060;-82
2022/07/22 09:22:33;;;;;;;34.53;32.00;;;;;;;33.60;27.44;101078.91;5033481;28;20045;-82
2022/07/22 09:25:25;;;;;;;29.25;27.10;;;;;;;33.18;27.01;101081.28;5033504;28;20513;-82
2022/07/22 09:27:57;;;;;;;29.23;26.55;;;;;;;32.92;27.22;101076.19;5033659;28;20050;-83
2022/07/22 09:30:27;;;;;;;27.60;25.50;;;;;;;32.47;32.46;101066.22;5032043;28;20056;-83
2022/07/22 09:32:56;;;;;;;27.88;25.83;;;;;;;32.80;26.72;101072.34;5034253;28;20083;-81
2022/07/22 09:35:28;;;;;;;27.58;25.55;;;;;;;33.16;25.89;101072.56;5028404;28;20046;-81
2022/07/22 09:37:57;;;;;;;27.95;25.45;;;;;;;32.60;26.82;101059.56;5033963;28;20462;-82
2022/07/22 09:40:29;;;;;;;26.95;24.65;;;;;;;32.80;26.94;101066.84;5032166;28;20051;-81
2022/07/22 09:43:06;;;;;;;32.43;29.87;;;;;;;32.90;26.81;101064.75;5034815;28;20140;-82
2022/07/22 09:45:34;;;;;;;29.90;27.58;;;;;;;33.08;27.03;101066.09;5033793;28;20053;-82
2022/07/22 09:48:02;;;;;;;33.83;31.73;;;;;;;33.01;25.75;101058.44;5029966;28;20061;-82
2022/07/22 09:50:35;;;;;;;32.17;30.08;;;;;;;32.14;35.46;101065.22;5031754;28;20053;-83
2022/07/22 09:53:03;;;;;;;29.67;27.67;;;;;;;32.22;35.79;101063.47;5024931;28;20064;-81
2022/07/22 09:55:33;;;;;;;30.30;28.17;;;;;;;31.99;30.94;101071.41;5033517;28;20052;-84
2022/07/22 09:58:00;;;;;;;31.85;29.55;;;;;;;32.75;28.14;101069.84;5022238;28;20054;-82
2022/07/22 10:00:28;;;;;;;29.83;27.63;;;;;;;32.81;28.01;101064.91;5033728;28;20064;-81
2022/07/22 10:02:57;;;;;;;31.58;29.27;;;;;;;33.45;26.19;101065.91;5021029;28;20504;-82
2022/07/22 10:05:26;;;;;;;30.50;28.25;;;;;;;32.84;29.85;101067.75;5036165;28;20046;-82
2022/07/22 10:07:55;;;;;;;39.53;36.95;;;;;;;32.79;33.69;101072.69;5036918;28;20064;-83
2022/07/22 10:10:24;;;;;;;34.22;31.95;;;;;;;33.70;30.52;101066.56;5034987;28;20068;-82
2022/07/22 10:12:53;;;;;;;37.35;34.90;;;;;;;34.11;28.52;101073.53;5036384;28;20049;-83
2022/07/22 10:15:22;;;;;;;35.40;32.92;;;;;;;34.50;26.36;101070.06;5035227;28;20566;-81
2022/07/22 10:17:53;;;;;;;38.50;36.00;;;;;;;33.30;26.53;101073.78;5034228;28;20132;-82
2022/07/22 10:20:21;;;;;;;36.45;34.22;;;;;;;33.63;26.66;101063.66;5035523;28;20061;-81
2022/07/22 10:22:57;;;;;;;36.47;34.05;;;;;;;33.32;28.68;101067.94;5033957;28;20116;-82
2022/07/22 10:25:25;;;;;;;35.28;33.05;;;;;;;32.70;33.97;101075.56;5018120;28;20049;-83
2022/07/22 10:27:55;;;;;;;32.55;30.15;;;;;;;34.07;28.52;101067.13;5036632;28;20053;-85
2022/07/22 10:30:23;;;;;;;31.77;29.50;;;;;;;34.54;27.63;101062.69;5035763;28;20048;-82
2022/07/22 10:33:06;;;;;;;30.25;28.05;;;;;;;33.88;25.99;101065.06;5035722;28;20421;-83
2022/07/22 10:35:35;;;;;;;28.52;26.45;;;;;;;33.31;25.86;101055.31;5035154;28;20076;-83
2022/07/22 10:38:06;;;;;;;31.58;29.45;;;;;;;33.48;26.04;101056.94;5029683;28;20489;-82
2022/07/22 10:40:47;;;;;;;29.20;26.90;;;;;;;33.96;31.58;101053.06;5035968;28;20488;-84
2022/07/22 10:43:15;;;;;;;29.73;27.48;;;;;;;34.66;27.65;101051.53;5032940;28;20080;-83
2022/07/22 10:45:47;;;;;;;30.85;28.67;;;;;;;33.95;30.00;101053.41;5035388;28;20477;-82
2022/07/22 10:48:15;;;;;;;;;;;;;;;34.32;30.13;101051.16;5027515;28;20111;-83
2022/07/22 10:51:11;;;;;;;30.13;27.90;;;;;;;34.18;30.87;101050.84;5035589;28;19928;-82
2022/07/22 10:53:46;;;;;;;29.88;27.77;;;;;;;34.61;25.81;101049.06;5027904;28;20124;-84
2022/07/22 10:56:19;;;;;;;29.02;26.90;;;;;;;33.37;31.80;101051.13;5031073;28;20057;-83
2022/07/22 10:58:52;;;;;;;29.08;26.95;;;;;;;34.01;28.86;101051.19;5027088;28;20056;-83
2022/07/22 11:01:21;;;;;;;29.15;26.95;;;;;;;34.75;31.67;101052.13;5034506;28;20049;-82
2022/07/22 11:03:50;;;;;;;28.25;25.75;;;;;;;34.56;28.02;101041.88;5036338;28;20137;-83
2022/07/22 11:06:23;;;;;;;27.75;25.42;;;;;;;33.98;28.50;101052.69;5035637;28;20053;-84
2022/07/22 11:08:55;;;;;;;28.58;26.45;;;;;;;33.50;27.21;101049.97;5027595;28;20505;-83
2022/07/22 11:11:53;;;;;;;31.20;29.10;;;;;;;33.94;28.42;101046.31;5026894;28;20474;-86
2022/07/22 11:14:26;;;;;;;31.58;29.17;;;;;;;33.36;28.91;101046.00;4955251;28;20519;-82